Time;durP1;ratioP1;P1;durP2;ratioP2;P2;SDS_P1;SDS_P2;PMS_P1;PMS_P2;Temp;Humidity;BMP_temperature;BMP_pressure;BME280_temperature;BME280_humidity;BME280_pressure;Samples;Min_cycle;Max_cycle;Signal;HPM_P1;HPM_P2
2022/10/04 00:03:54;;;;;;;0.10;0.10;;;;;;;-145.16;100.00;78540.89;645189;217;32343;-73
2022/10/04 00:09:56;;;;;;;0.10;0.10;;;;;;;-145.16;100.00;78579.16;645182;217;32314;-73
2022/10/04 00:15:59;;;;;;;0.47;0.47;;;;;;;-145.16;100.00;78593.25;653687;218;32364;-73
2022/10/04 00:21:59;;;;;;;0.13;0.13;;;;;;;-145.16;100.00;78604.33;645200;217;33360;-73
2022/10/04 00:25:24;;;;;;;0.10;0.10;;;;;;;-145.16;100.00;78594.27;635246;225;23685;-73
2022/10/04 00:31:28;;;;;;;0.40;0.30;;;;;;;-145.16;100.00;78618.43;645185;217;32413;-73
2022/10/04 00:34:46;;;;;;;0.00;0.00;;;;;;;-145.16;100.00;78615.41;635229;225;22703;-73
2022/10/04 00:40:28;;;;;;;0.10;0.10;;;;;;;-145.16;100.00;78622.45;653672;217;34338;-73
2022/10/04 00:46:29;;;;;;;0.30;0.30;;;;;;;-145.16;100.00;78635.55;653709;217;43062;-74
2022/10/04 00:52:30;;;;;;;0.20;0.20;;;;;;;-145.16;100.00;78629.52;653681;217;32352;-73
2022/10/04 00:58:34;;;;;;;2.15;1.52;;;;;;;-145.16;100.00;78613.39;645015;217;32363;-72
2022/10/04 01:04:34;;;;;;;0.52;0.52;;;;;;;-145.16;100.00;78622.45;645274;218;33666;-73
2022/10/04 01:10:36;;;;;;;0.00;0.00;;;;;;;-145.16;100.00;78591.23;645179;218;43055;-73
2022/10/04 01:16:36;;;;;;;0.03;0.03;;;;;;;-145.16;100.00;78586.20;645185;217;32387;-73
2022/10/04 01:22:40;;;;;;;0.08;0.08;;;;;;;-145.16;100.00;78551.97;645188;217;32378;-73
2022/10/04 01:28:57;;;;;;;0.10;0.10;;;;;;;-145.16;100.00;78531.82;645189;217;32339;-73
2022/10/04 01:34:56;;;;;;;0.10;0.10;;;;;;;-145.16;100.00;78544.91;653671;218;32469;-73
2022/10/04 01:40:58;;;;;;;1.00;1.00;;;;;;;-145.16;100.00;78533.84;653693;218;32379;-73
2022/10/04 01:46:56;;;;;;;0.40;0.40;;;;;;;-145.16;100.00;78530.81;645174;217;42768;-73
2022/10/04 01:53:00;;;;;;;0.40;0.40;;;;;;;-145.16;100.00;78529.81;653666;217;32379;-72
2022/10/04 01:58:58;;;;;;;0.30;0.30;;;;;;;-145.16;100.00;78692.95;653725;218;34292;-73
2022/10/04 02:04:58;;;;;;;12.20;0.60;;;;;;;-145.16;100.00;78594.27;653697;217;32383;-73
2022/10/04 02:10:59;;;;;;;0.00;0.00;;;;;;;-145.16;100.00;78566.06;653696;217;32459;-72
2022/10/04 02:16:59;;;;;;;0.00;0.00;;;;;;;-145.16;100.00;78573.11;653791;217;33352;-73
2022/10/04 02:23:02;;;;;;;0.10;0.10;;;;;;;-145.16;100.00;78599.30;653687;217;32470;-73
2022/10/04 02:29:01;;;;;;;0.10;0.10;;;;;;;-145.16;100.00;78585.20;645066;217;32379;-73
2022/10/04 02:35:02;;;;;;;0.50;0.50;;;;;;;-145.16;100.00;78620.45;645236;217;35312;-73
2022/10/04 02:41:02;;;;;;;0.13;0.13;;;;;;;-145.16;100.00;78656.70;653797;217;35174;-72
2022/10/04 02:47:02;;;;;;;0.50;0.30;;;;;;;-145.16;100.00;78670.80;645168;217;32364;-73
2022/10/04 02:53:03;;;;;;;3.10;1.70;;;;;;;-145.16;100.00;78687.92;645234;218;34322;-73
2022/10/04 02:59:02;;;;;;;0.50;0.40;;;;;;;-145.16;100.00;78716.12;645218;218;34314;-73
2022/10/04 03:05:03;;;;;;;0.10;0.10;;;;;;;-145.16;100.00;78677.84;653673;217;43066;-73
2022/10/04 03:11:05;;;;;;;0.10;0.10;;;;;;;-145.16;100.00;78688.92;645099;217;34328;-73
2022/10/04 03:17:05;;;;;;;0.40;0.40;;;;;;;-145.16;100.00;78712.09;645193;217;35278;-73
2022/10/04 03:23:05;;;;;;;0.50;0.50;;;;;;;-145.16;100.00;78740.29;653684;218;34351;-73
2022/10/04 03:29:06;;;;;;;0.70;0.70;;;;;;;-145.16;100.00;78717.13;645176;217;33380;-73
2022/10/04 03:35:06;;;;;;;1.40;0.70;;;;;;;-145.16;100.00;78714.11;645204;217;32388;-73
2022/10/04 03:41:07;;;;;;;1.33;1.23;;;;;;;-145.16;100.00;78725.19;645185;217;53802;-73
2022/10/04 03:47:09;;;;;;;0.80;0.80;;;;;;;-145.16;100.00;78708.06;645027;217;34338;-73
2022/10/04 03:53:10;;;;;;;0.10;0.10;;;;;;;-145.16;100.00;78653.68;653676;217;32370;-73
2022/10/04 03:59:11;;;;;;;0.10;0.10;;;;;;;-145.16;100.00;78657.70;653690;217;32421;-73
2022/10/04 04:05:18;;;;;;;0.83;0.43;;;;;;;-145.16;100.00;78686.91;645164;217;32370;-73
2022/10/04 04:11:18;;;;;;;0.07;0.07;;;;;;;-145.16;100.00;78671.80;653686;217;32349;-73
2022/10/04 04:17:19;;;;;;;0.50;0.50;;;;;;;-145.16;100.00;78706.05;645170;217;32387;-73
2022/10/04 04:23:20;;;;;;;0.67;0.30;;;;;;;-145.16;100.00;78712.09;645261;217;34597;-73
2022/10/04 04:29:25;;;;;;;0.83;0.83;;;;;;;-145.16;100.00;78720.15;653766;217;34649;-73
2022/10/04 04:35:26;;;;;;;3.83;1.77;;;;;;;-145.16;100.00;78723.17;645189;217;34672;-73
2022/10/04 04:41:31;;;;;;;0.10;0.10;;;;;;;-145.16;100.00;78770.50;645180;218;34314;-73
2022/10/04 04:47:32;;;;;;;0.00;0.00;;;;;;;-145.16;100.00;78747.34;645162;217;32662;-73
2022/10/04 04:53:32;;;;;;;0.20;0.20;;;;;;;-145.16;100.00;78753.38;645192;218;33302;-73
2022/10/04 04:59:33;;;;;;;1.63;1.13;;;;;;;-145.16;100.00;78849.06;645177;218;32396;-73
2022/10/04 05:05:46;;;;;;;0.10;0.10;;;;;;;-145.16;100.00;78762.45;645233;217;35323;-73
2022/10/04 05:11:47;;;;;;;0.10;0.10;;;;;;;-145.16;100.00;78751.37;653768;218;32778;-73
2022/10/04 05:17:46;;;;;;;0.50;0.40;;;;;;;-145.16;100.00;78748.34;653666;217;32417;-73
2022/10/04 05:23:48;;;;;;;0.45;0.45;;;;;;;-145.16;100.00;78763.45;650544;217;30287;-73
2022/10/04 05:29:50;;;;;;;0.10;0.10;;;;;;;-145.16;100.00;78721.16;644735;217;32436;-73
2022/10/04 05:35:53;;;;;;;5.10;2.00;;;;;;;-145.16;100.00;78691.95;645169;217;32676;-73
2022/10/04 05:41:55;;;;;;;0.10;0.10;;;;;;;-145.16;100.00;78705.05;645053;217;33360;-73
2022/10/04 05:47:59;;;;;;;0.27;0.27;;;;;;;-145.16;100.00;78725.19;653674;217;32338;-73
2022/10/04 05:53:58;;;;;;;0.00;0.00;;;;;;;-145.16;100.00;78663.75;645221;218;34325;-73
2022/10/04 06:00:13;;;;;;;0.40;0.40;;;;;;;-145.16;100.00;78656.70;645141;217;34343;-74
2022/10/04 06:06:16;;;;;;;0.13;0.13;;;;;;;-145.16;100.00;78651.66;645246;217;34319;-73
2022/10/04 06:12:18;;;;;;;0.70;0.70;;;;;;;-145.16;100.00;78683.89;645226;218;34333;-73
2022/10/04 06:15:24;;;;;;;1.00;0.90;;;;;;;-145.16;100.00;78686.91;635245;225;22684;-74
2022/10/04 06:21:08;;;;;;;1.30;1.23;;;;;;;-145.16;100.00;78699.00;653675;218;33389;-73
2022/10/04 06:27:09;;;;;;;0.80;0.80;;;;;;;-145.16;100.00;78677.84;645192;217;32604;-73
2022/10/04 06:33:12;;;;;;;0.50;0.50;;;;;;;-145.16;100.00;78641.59;653636;217;34336;-73
2022/10/04 06:39:16;;;;;;;1.70;0.80;;;;;;;-145.16;100.00;78569.08;645046;217;33413;-73
2022/10/04 06:45:28;;;;;;;0.23;0.23;;;;;;;-145.16;100.00;78543.91;645171;217;33306;-72
2022/10/04 06:51:35;;;;;;;1.20;1.10;;;;;;;-145.16;100.00;78494.56;645210;217;35318;-73
2022/10/04 06:57:38;;;;;;;1.30;1.20;;;;;;;-145.16;100.00;78328.41;653677;217;32404;-73
2022/10/04 07:03:38;;;;;;;0.80;0.80;;;;;;;-145.16;100.00;78382.78;653712;217;43339;-73
2022/10/04 07:09:39;;;;;;;0.57;0.57;;;;;;;-145.16;100.00;78087.73;645177;217;33293;-73
2022/10/04 07:15:40;;;;;;;1.10;1.00;;;;;;;-145.16;100.00;77636.66;653681;217;32349;-73
2022/10/04 07:21:41;;;;;;;1.90;1.80;;;;;;;-145.16;100.00;77580.28;645170;217;32353;-73
2022/10/04 07:27:41;;;;;;;1.00;0.93;;;;;;;-145.16;100.00;77801.78;645157;217;32653;-74
2022/10/04 07:33:41;;;;;;;1.50;1.10;;;;;;;-145.16;100.00;78069.61;653702;217;32393;-74
2022/10/04 07:39:41;;;;;;;0.43;0.43;;;;;;;-145.16;100.00;77601.42;645201;218;32352;-74
2022/10/04 07:45:44;;;;;;;0.45;0.45;;;;;;;-145.16;100.00;77275.24;645025;217;32645;-74
2022/10/04 07:51:44;;;;;;;1.02;0.77;;;;;;;-145.16;100.00;77152.43;653699;217;32433;-74
2022/10/04 07:57:48;;;;;;;1.23;1.23;;;;;;;-145.16;100.00;77137.33;645014;217;32298;-75
2022/10/04 08:03:50;;;;;;;1.20;1.20;;;;;;;-145.16;100.00;77223.91;653665;217;32444;-74
2022/10/04 08:09:52;;;;;;;2.70;1.65;;;;;;;-145.16;97.31;77066.86;645085;217;43314;-72
2022/10/04 08:15:54;;;;;;;0.90;0.90;;;;;;;-145.16;99.55;77111.16;643895;217;32362;-73
2022/10/04 08:21:53;;;;;;;0.30;0.30;;;;;;;-145.16;96.67;77102.09;653658;217;32360;-72
2022/10/04 08:34:15;;;;;;;0.47;0.47;;;;;;;-145.16;85.17;76746.77;653659;217;32349;-72
2022/10/04 08:40:16;;;;;;;0.40;0.40;;;;;;;-145.16;84.39;76857.49;645176;218;32309;-72
2022/10/04 08:46:33;;;;;;;0.73;0.73;;;;;;;-145.16;82.71;76929.97;641504;217;32492;-74
2022/10/04 08:52:41;;;;;;;0.50;0.50;;;;;;;-145.16;77.86;76717.58;653654;217;32360;-72
2022/10/04 08:55:53;;;;;;;0.73;0.73;;;;;;;-145.16;78.56;76825.28;647408;222;22711;-74
2022/10/04 09:01:40;;;;;;;1.60;0.85;;;;;;;-145.16;71.33;76665.24;644993;217;32371;-72
2022/10/04 09:07:56;;;;;;;0.40;0.40;;;;;;;-145.16;73.37;76595.80;645167;217;32377;-73
2022/10/04 09:13:57;;;;;;;0.70;0.70;;;;;;;-145.16;70.19;76742.75;645160;217;32373;-73
2022/10/04 09:19:57;;;;;;;0.50;0.50;;;;;;;-145.16;75.11;76783.01;653666;217;32366;-73
2022/10/04 09:25:59;;;;;;;0.40;0.40;;;;;;;-145.16;74.25;76745.77;653673;217;32330;-72
2022/10/04 09:32:03;;;;;;;0.88;0.88;;;;;;;-145.16;72.01;76812.20;653670;217;32335;-72
2022/10/04 09:38:05;;;;;;;0.50;0.50;;;;;;;-145.16;71.03;76695.44;653672;217;32317;-73
2022/10/04 09:44:17;;;;;;;1.20;1.10;;;;;;;-145.16;72.27;76882.66;653625;217;32372;-72
2022/10/04 09:50:19;;;;;;;1.75;1.35;;;;;;;-145.16;78.58;77094.05;645145;217;32340;-73
2022/10/04 09:56:21;;;;;;;4.10;1.60;;;;;;;-145.16;79.61;77091.02;645070;218;32363;-73
2022/10/04 10:02:28;;;;;;;0.30;0.30;;;;;;;-145.16;78.50;76969.22;653699;217;32328;-73
2022/10/04 10:08:34;;;;;;;1.20;1.20;;;;;;;-145.16;77.56;77088.00;645172;217;32358;-75
2022/10/04 10:14:34;;;;;;;0.73;0.73;;;;;;;-145.16;79.32;77020.56;653659;217;32377;-73
2022/10/04 10:20:37;;;;;;;0.40;0.40;;;;;;;-145.16;76.73;76939.03;645030;217;32375;-73
2022/10/04 10:23:52;;;;;;;0.70;0.70;;;;;;;-145.16;75.96;76933.99;635241;225;23733;-74
2022/10/04 10:29:37;;;;;;;1.60;1.58;;;;;;;-145.16;74.24;76966.20;645156;217;32359;-72
2022/10/04 10:35:41;;;;;;;0.88;0.88;;;;;;;-145.16;78.60;77127.27;644133;217;32345;-72
2022/10/04 10:41:43;;;;;;;2.45;1.70;;;;;;;-145.16;79.34;77215.84;645169;218;32419;-73
2022/10/04 10:47:45;;;;;;;1.12;1.12;;;;;;;-145.16;78.95;77022.58;645168;217;32368;-72
2022/10/04 10:53:59;;;;;;;1.23;1.12;;;;;;;-145.16;73.46;76861.52;645145;218;32357;-73
2022/10/04 11:00:11;;;;;;;1.15;1.02;;;;;;;-145.16;77.60;77101.09;644990;217;32404;-73
2022/10/04 11:06:24;;;;;;;0.57;0.57;;;;;;;-145.16;77.08;76941.04;645169;218;32341;-73
2022/10/04 11:09:35;;;;;;;3.03;1.25;;;;;;;-145.16;78.83;77082.97;635208;225;22692;-75
2022/10/04 11:15:53;;;;;;;3.55;1.52;;;;;;;-145.16;74.26;76989.36;653666;217;32364;-73
2022/10/04 11:19:02;;;;;;;0.30;0.30;;;;;;;-145.16;78.06;76989.36;644299;222;22682;-74
2022/10/04 11:25:01;;;;;;;0.90;0.90;;;;;;;-145.16;72.15;76854.47;635039;217;32348;-72
2022/10/04 11:31:03;;;;;;;0.45;0.45;;;;;;;-145.16;69.51;76683.36;643812;218;32331;-73
2022/10/04 11:37:11;;;;;;;0.60;0.60;;;;;;;-145.16;71.32;76814.21;645154;217;32378;-72
2022/10/04 11:43:15;;;;;;;5.53;1.67;;;;;;;-145.16;81.11;77104.11;645144;217;32370;-73
2022/10/04 11:49:18;;;;;;;0.40;0.40;;;;;;;-145.16;90.27;77275.24;645155;217;32683;-72
2022/10/04 11:55:24;;;;;;;0.40;0.40;;;;;;;-145.16;96.08;77403.09;653671;217;32311;-73
2022/10/04 12:01:31;;;;;;;0.50;0.50;;;;;;;-145.16;98.80;77300.41;639151;217;32502;-72
2022/10/04 12:07:50;;;;;;;4.90;1.70;;;;;;;-145.16;97.61;77383.97;653679;217;32298;-75
2022/10/04 12:13:50;;;;;;;2.05;0.47;;;;;;;-145.16;99.17;77305.44;645171;217;32343;-75
2022/10/04 12:19:57;;;;;;;1.23;0.60;;;;;;;-145.16;94.53;77276.25;645182;218;32376;-75
2022/10/04 12:23:10;;;;;;;1.05;0.95;;;;;;;-145.16;99.38;77403.09;635255;225;22692;-74
2022/10/04 12:28:53;;;;;;;0.20;0.20;;;;;;;-145.16;100.00;77253.09;644936;217;43124;-75
2022/10/04 12:34:54;;;;;;;0.57;0.57;;;;;;;-145.16;100.00;77394.03;651687;217;32311;-74
2022/10/04 12:40:54;;;;;;;1.27;1.00;;;;;;;-145.16;100.00;77256.12;648025;217;32504;-75
2022/10/04 12:46:57;;;;;;;2.80;1.33;;;;;;;-145.16;100.00;77228.94;637533;217;32426;-74
2022/10/04 12:52:57;;;;;;;0.62;0.62;;;;;;;-145.16;100.00;77220.88;647534;217;28512;-75
2022/10/04 12:59:06;;;;;;;0.62;0.60;;;;;;;-145.16;97.74;77287.33;653671;217;43003;-74
2022/10/04 13:05:08;;;;;;;1.60;1.50;;;;;;;-145.16;97.75;77259.14;644985;217;32414;-75
2022/10/04 13:11:13;;;;;;;1.60;0.95;;;;;;;-145.16;99.07;77319.54;645162;217;32363;-76
2022/10/04 13:17:18;;;;;;;0.50;0.50;;;;;;;-145.16;100.00;77318.53;653685;217;32374;-76
2022/10/04 13:23:26;;;;;;;1.98;0.98;;;;;;;-145.16;100.00;77327.59;645131;217;42915;-76
2022/10/04 13:29:34;;;;;;;0.90;0.60;;;;;;;-145.16;100.00;77402.09;645169;217;32362;-76
2022/10/04 13:35:35;;;;;;;0.55;0.55;;;;;;;-145.16;100.00;77371.89;645146;218;32356;-76
2022/10/04 13:41:43;;;;;;;0.40;0.40;;;;;;;-145.16;100.00;77345.72;645176;217;32374;-77
2022/10/04 13:47:51;;;;;;;0.30;0.30;;;;;;;-145.16;100.00;77330.61;647285;217;32382;-76
2022/10/04 14:00:15;;;;;;;0.70;0.70;;;;;;;-145.16;100.00;77320.55;653592;217;32397;-75
2022/10/04 14:06:23;;;;;;;0.50;0.50;;;;;;;-145.16;100.00;77322.56;643332;217;43007;-75
2022/10/04 14:09:29;;;;;;;4.00;1.85;;;;;;;-145.16;100.00;77295.38;635972;226;22703;-76
2022/10/04 14:15:52;;;;;;;0.30;0.30;;;;;;;-145.16;100.00;77280.28;645177;217;32429;-74
2022/10/04 14:18:56;;;;;;;0.10;0.10;;;;;;;-145.16;100.00;77252.09;635214;225;22683;-74
2022/10/04 14:24:59;;;;;;;0.25;0.25;;;;;;;-145.16;100.00;77248.06;642579;217;32455;-76
2022/10/04 14:31:12;;;;;;;0.20;0.20;;;;;;;-145.16;100.00;77223.91;645092;217;32351;-75
2022/10/04 14:37:24;;;;;;;2.35;1.33;;;;;;;-145.16;100.00;77314.50;645177;217;32382;-77
2022/10/04 14:43:32;;;;;;;0.40;0.40;;;;;;;-145.16;100.00;77273.23;653629;213;32369;-74
2022/10/04 14:49:34;;;;;;;0.40;0.40;;;;;;;-145.16;100.00;77378.94;645069;217;32353;-75
2022/10/04 14:55:37;;;;;;;0.22;0.22;;;;;;;-145.16;100.00;77317.52;653705;217;32641;-74
2022/10/04 15:01:37;;;;;;;0.75;0.75;;;;;;;-145.16;100.00;77266.19;653679;218;32357;-75
2022/10/04 15:07:45;;;;;;;0.30;0.30;;;;;;;-145.16;100.00;77265.17;653636;217;32378;-75
2022/10/04 15:13:45;;;;;;;2.70;2.60;;;;;;;-145.16;100.00;77280.28;645006;217;32330;-76
2022/10/04 15:19:48;;;;;;;0.60;0.50;;;;;;;-145.16;100.00;77357.80;653665;218;32379;-76
2022/10/04 15:25:56;;;;;;;0.20;0.20;;;;;;;-145.16;100.00;77323.56;645122;217;32365;-75
2022/10/04 15:32:04;;;;;;;0.30;0.30;;;;;;;-145.16;100.00;77320.55;645173;217;32371;-74
2022/10/04 15:38:03;;;;;;;0.20;0.20;;;;;;;-145.16;100.00;77329.61;645185;217;32323;-77
2022/10/04 15:44:15;;;;;;;0.20;0.20;;;;;;;-145.16;100.00;77345.72;653639;217;32361;-75
2022/10/04 15:50:24;;;;;;;0.20;0.20;;;;;;;-145.16;100.00;77396.05;643073;217;32312;-74
2022/10/04 15:56:26;;;;;;;0.20;0.20;;;;;;;-145.16;100.00;77409.14;636423;217;32536;-74
2022/10/04 16:02:33;;;;;;;0.20;0.20;;;;;;;-145.16;100.00;77426.25;653667;213;32415;-74
2022/10/04 16:08:40;;;;;;;0.17;0.17;;;;;;;-145.16;100.00;77460.48;641986;218;32505;-74
2022/10/04 16:14:52;;;;;;;0.10;0.10;;;;;;;-145.16;100.00;77472.56;645040;218;32345;-74
2022/10/04 16:20:56;;;;;;;0.20;0.20;;;;;;;-145.16;100.00;77484.64;653674;217;32478;-74
2022/10/04 16:26:56;;;;;;;0.30;0.30;;;;;;;-145.16;100.00;77528.94;645162;218;32386;-74
2022/10/04 16:32:59;;;;;;;0.20;0.20;;;;;;;-145.16;100.00;77558.14;653685;217;42998;-74
2022/10/04 16:45:17;;;;;;;0.13;0.13;;;;;;;-145.16;100.00;77623.58;653700;217;32311;-74
2022/10/04 16:51:18;;;;;;;0.10;0.10;;;;;;;-145.16;100.00;77628.61;645203;217;32310;-74
2022/10/04 16:57:21;;;;;;;0.10;0.10;;;;;;;-145.16;100.00;77664.86;645187;217;32394;-74
2022/10/04 17:03:40;;;;;;;0.10;0.10;;;;;;;-145.16;100.00;77657.80;653563;217;32298;-74
2022/10/04 17:09:42;;;;;;;0.10;0.10;;;;;;;-145.16;100.00;77667.88;653644;218;43021;-74
2022/10/04 17:15:42;;;;;;;0.10;0.10;;;;;;;-145.16;100.00;77682.98;645164;217;32381;-73
2022/10/04 17:21:45;;;;;;;0.08;0.08;;;;;;;-145.16;100.00;77686.00;642075;217;32347;-74
2022/10/04 17:27:51;;;;;;;0.17;0.17;;;;;;;-145.16;100.00;77698.08;645176;217;32366;-74
2022/10/04 17:33:55;;;;;;;0.10;0.10;;;;;;;-145.16;100.00;77722.24;653657;218;43130;-74
2022/10/04 17:39:55;;;;;;;0.10;0.10;;;;;;;-145.16;100.00;77760.50;653677;218;32367;-74
2022/10/04 17:45:56;;;;;;;0.20;0.20;;;;;;;-145.16;100.00;77802.79;645167;217;32376;-74
2022/10/04 17:58:20;;;;;;;4.57;2.20;;;;;;;-145.16;100.00;77842.05;645172;218;32419;-74
2022/10/04 18:04:18;;;;;;;1.70;1.60;;;;;;;-145.16;100.00;77854.14;645167;218;32409;-74
2022/10/04 18:10:19;;;;;;;0.68;0.68;;;;;;;-145.16;100.00;77835.01;653693;217;32295;-73
2022/10/04 18:16:21;;;;;;;2.42;1.30;;;;;;;-145.16;100.00;77823.94;645194;217;32347;-74
2022/10/04 18:22:25;;;;;;;3.37;1.92;;;;;;;-145.16;100.00;77837.02;645168;217;32319;-74
2022/10/04 18:28:25;;;;;;;1.17;1.17;;;;;;;-145.16;100.00;77838.03;644968;218;32322;-73
2022/10/04 18:34:31;;;;;;;0.20;0.20;;;;;;;-145.16;100.00;77809.84;645175;217;32374;-73
2022/10/04 18:40:32;;;;;;;0.60;0.60;;;;;;;-145.16;100.00;77815.88;653675;217;32323;-73
2022/10/04 18:46:37;;;;;;;0.20;0.20;;;;;;;-145.16;100.00;77806.81;645166;217;32366;-74
2022/10/04 18:52:40;;;;;;;0.10;0.10;;;;;;;-145.16;100.00;77795.74;653670;218;43000;-73
2022/10/04 19:05:03;;;;;;;0.10;0.10;;;;;;;-145.16;100.00;77779.63;645047;217;32313;-73
2022/10/04 19:11:04;;;;;;;0.40;0.40;;;;;;;-145.16;100.00;77790.70;645165;217;32314;-73
2022/10/04 19:17:06;;;;;;;0.10;0.10;;;;;;;-145.16;100.00;77786.68;653653;217;32313;-74
2022/10/04 19:23:11;;;;;;;0.17;0.17;;;;;;;-145.16;100.00;77772.59;645039;218;32375;-73
2022/10/04 19:29:09;;;;;;;0.30;0.30;;;;;;;-145.16;100.00;77783.66;645175;217;32336;-73
2022/10/04 19:35:10;;;;;;;0.68;0.68;;;;;;;-145.16;100.00;77803.80;645189;217;32382;-73
2022/10/04 19:41:12;;;;;;;0.80;0.80;;;;;;;-145.16;100.00;77800.77;645201;217;32320;-73
2022/10/04 19:47:14;;;;;;;0.60;0.60;;;;;;;-145.16;100.00;77811.85;653649;217;32314;-73
2022/10/04 19:53:16;;;;;;;0.50;0.50;;;;;;;-145.16;100.00;77789.70;653692;217;32374;-73
2022/10/04 19:59:19;;;;;;;0.20;0.20;;;;;;;-145.16;100.00;77781.64;645016;217;32352;-73
2022/10/04 20:05:23;;;;;;;0.15;0.15;;;;;;;-145.16;100.00;77797.75;645199;217;32378;-74
2022/10/04 20:11:24;;;;;;;0.30;0.30;;;;;;;-145.16;100.00;77788.69;653670;217;32325;-73
2022/10/04 20:14:29;;;;;;;2.30;0.75;;;;;;;-145.16;100.00;77766.55;647447;222;22679;-73
2022/10/04 20:20:17;;;;;;;0.32;0.32;;;;;;;-145.16;100.00;77790.70;645067;217;32378;-73
2022/10/04 20:26:50;;;;;;;0.30;0.30;;;;;;;-145.16;100.00;77784.66;645032;217;32676;-73
2022/10/04 20:32:21;;;;;;;0.62;0.62;;;;;;;-145.16;100.00;77810.84;643975;217;32371;-73
2022/10/04 20:38:22;;;;;;;1.10;0.80;;;;;;;-145.16;100.00;77773.59;643556;217;32364;-74
2022/10/04 20:44:38;;;;;;;0.10;0.10;;;;;;;-145.16;100.00;77772.59;645169;218;32418;-73
2022/10/04 20:50:48;;;;;;;0.40;0.40;;;;;;;-145.16;100.00;77774.59;653696;217;32307;-73
2022/10/04 20:56:52;;;;;;;0.13;0.13;;;;;;;-145.16;100.00;77772.59;645052;217;32365;-73
2022/10/04 21:02:52;;;;;;;0.37;0.37;;;;;;;-145.16;100.00;77769.56;645033;217;32406;-73
2022/10/04 21:08:52;;;;;;;0.10;0.10;;;;;;;-145.16;100.00;77756.48;653695;217;32311;-73
2022/10/04 21:14:56;;;;;;;0.10;0.10;;;;;;;-145.16;100.00;77783.66;653658;217;43029;-73
2022/10/04 21:20:57;;;;;;;0.10;0.10;;;;;;;-145.16;100.00;77776.61;645181;217;32353;-73
2022/10/04 21:26:56;;;;;;;0.10;0.10;;;;;;;-145.16;100.00;77792.72;645185;217;32356;-73
2022/10/04 21:32:58;;;;;;;0.10;0.10;;;;;;;-145.16;100.00;77800.77;653666;217;32353;-73
2022/10/04 21:38:58;;;;;;;0.60;0.60;;;;;;;-145.16;100.00;77833.00;645171;217;32402;-73
2022/10/04 21:44:58;;;;;;;0.28;0.28;;;;;;;-145.16;100.00;77806.81;645191;217;32506;-73
2022/10/04 21:50:58;;;;;;;0.10;0.10;;;;;;;-145.16;100.00;77821.92;641222;217;32532;-73
2022/10/04 21:56:57;;;;;;;0.10;0.10;;;;;;;-145.16;100.00;77828.97;645204;217;32322;-73
2022/10/04 22:02:58;;;;;;;0.70;0.70;;;;;;;-145.16;100.00;77829.98;645176;217;32402;-73
2022/10/04 22:08:58;;;;;;;0.15;0.15;;;;;;;-145.16;100.00;77811.85;645152;217;33354;-73
2022/10/04 22:14:57;;;;;;;0.20;0.20;;;;;;;-145.16;100.00;77804.80;653706;217;32636;-73
2022/10/04 22:20:58;;;;;;;0.15;0.15;;;;;;;-145.16;100.00;77788.69;645182;218;32364;-73
2022/10/04 22:26:58;;;;;;;0.60;0.60;;;;;;;-145.16;100.00;77813.86;653685;217;32387;-73
2022/10/04 22:32:58;;;;;;;0.10;0.10;;;;;;;-145.16;100.00;77778.63;645193;217;32370;-73
2022/10/04 22:39:00;;;;;;;1.30;1.08;;;;;;;-145.16;100.00;77795.74;645042;218;32377;-73
2022/10/04 22:45:00;;;;;;;0.20;0.20;;;;;;;-145.16;100.00;77762.52;653694;217;32352;-73
2022/10/04 22:51:02;;;;;;;0.32;0.32;;;;;;;-145.16;100.00;77768.55;645048;218;32365;-73
2022/10/04 22:57:04;;;;;;;0.22;0.22;;;;;;;-145.16;100.00;77761.51;645016;217;32398;-73
2022/10/04 23:03:06;;;;;;;0.10;0.10;;;;;;;-145.16;100.00;77763.52;645026;217;33287;-72
2022/10/04 23:09:06;;;;;;;0.10;0.10;;;;;;;-145.16;100.00;77763.52;645159;217;32412;-73
2022/10/04 23:15:06;;;;;;;0.10;0.10;;;;;;;-145.16;100.00;77797.75;645156;217;32699;-73
2022/10/04 23:21:08;;;;;;;0.25;0.25;;;;;;;-145.16;100.00;77741.38;650601;217;30288;-73
2022/10/04 23:27:12;;;;;;;0.25;0.25;;;;;;;-145.16;100.00;77780.64;645156;218;32368;-73
2022/10/04 23:33:12;;;;;;;0.80;0.35;;;;;;;-145.16;100.00;77788.69;645174;218;43098;-73
2022/10/04 23:39:12;;;;;;;0.10;0.10;;;;;;;-145.16;100.00;77808.83;653704;217;36267;-73
2022/10/04 23:45:12;;;;;;;0.10;0.10;;;;;;;-145.16;100.00;77841.05;645190;218;32360;-73
2022/10/04 23:51:12;;;;;;;0.10;0.10;;;;;;;-145.16;100.00;77807.83;653675;217;32376;-73
2022/10/04 23:57:15;;;;;;;0.20;0.20;;;;;;;-145.16;100.00;77795.74;645051;217;43116;-73
